sensor_id;sensor_type;location;lat;lon;timestamp;P1;durP1;ratioP1;P2;durP2;ratioP2
10430;SDS011;5262;59.958;17.726;2023-07-20T00:01:45;1.10;;;0.70;;
10430;SDS011;5262;59.958;17.726;2023-07-20T00:04:11;1.53;;;0.87;;
10430;SDS011;5262;59.958;17.726;2023-07-20T00:06:38;1.73;;;0.93;;
10430;SDS011;5262;59.958;17.726;2023-07-20T00:09:06;2.20;;;0.77;;
10430;SDS011;5262;59.958;17.726;2023-07-20T00:11:34;2.63;;;0.73;;
10430;SDS011;5262;59.958;17.726;2023-07-20T00:14:01;1.80;;;0.90;;
10430;SDS011;5262;59.958;17.726;2023-07-20T00:16:27;1.00;;;0.70;;
10430;SDS011;5262;59.958;17.726;2023-07-20T00:18:53;3.70;;;0.70;;
10430;SDS011;5262;59.958;17.726;2023-07-20T00:21:18;1.33;;;1.03;;
10430;SDS011;5262;59.958;17.726;2023-07-20T00:23:45;1.00;;;0.77;;
10430;SDS011;5262;59.958;17.726;2023-07-20T00:26:10;0.70;;;0.70;;
10430;SDS011;5262;59.958;17.726;2023-07-20T00:28:36;0.80;;;0.80;;
10430;SDS011;5262;59.958;17.726;2023-07-20T00:31:01;1.87;;;0.80;;
10430;SDS011;5262;59.958;17.726;2023-07-20T00:33:28;2.90;;;1.00;;
10430;SDS011;5262;59.958;17.726;2023-07-20T00:35:53;1.40;;;0.97;;
10430;SDS011;5262;59.958;17.726;2023-07-20T00:38:19;2.17;;;0.73;;
10430;SDS011;5262;59.958;17.726;2023-07-20T00:40:45;1.80;;;0.63;;
10430;SDS011;5262;59.958;17.726;2023-07-20T00:43:11;0.93;;;0.63;;
10430;SDS011;5262;59.958;17.726;2023-07-20T00:45:37;3.60;;;0.83;;
10430;SDS011;5262;59.958;17.726;2023-07-20T00:48:04;3.50;;;0.90;;
10430;SDS011;5262;59.958;17.726;2023-07-20T00:50:31;3.87;;;0.70;;
10430;SDS011;5262;59.958;17.726;2023-07-20T00:52:57;1.53;;;0.70;;
10430;SDS011;5262;59.958;17.726;2023-07-20T00:55:23;1.27;;;0.80;;
10430;SDS011;5262;59.958;17.726;2023-07-20T00:57:50;2.97;;;1.00;;
10430;SDS011;5262;59.958;17.726;2023-07-20T01:00:16;3.33;;;0.80;;
10430;SDS011;5262;59.958;17.726;2023-07-20T01:02:43;2.87;;;0.80;;
10430;SDS011;5262;59.958;17.726;2023-07-20T01:05:08;1.57;;;0.87;;
10430;SDS011;5262;59.958;17.726;2023-07-20T01:07:42;2.17;;;0.80;;
10430;SDS011;5262;59.958;17.726;2023-07-20T01:12:54;2.10;;;0.70;;
10430;SDS011;5262;59.958;17.726;2023-07-20T01:15:20;1.17;;;0.70;;
10430;SDS011;5262;59.958;17.726;2023-07-20T01:17:46;1.73;;;0.87;;
10430;SDS011;5262;59.958;17.726;2023-07-20T01:20:15;1.23;;;0.93;;
10430;SDS011;5262;59.958;17.726;2023-07-20T01:31:25;1.50;;;1.00;;
10430;SDS011;5262;59.958;17.726;2023-07-20T01:33:54;1.97;;;0.77;;
10430;SDS011;5262;59.958;17.726;2023-07-20T01:36:22;1.13;;;0.70;;
10430;SDS011;5262;59.958;17.726;2023-07-20T01:38:52;2.20;;;0.90;;
10430;SDS011;5262;59.958;17.726;2023-07-20T01:41:18;2.93;;;0.80;;
10430;SDS011;5262;59.958;17.726;2023-07-20T01:43:44;2.47;;;0.90;;
10430;SDS011;5262;59.958;17.726;2023-07-20T01:46:09;2.83;;;0.83;;
10430;SDS011;5262;59.958;17.726;2023-07-20T01:48:35;2.43;;;0.77;;
10430;SDS011;5262;59.958;17.726;2023-07-20T01:51:01;1.60;;;0.77;;
10430;SDS011;5262;59.958;17.726;2023-07-20T01:53:27;3.47;;;0.90;;
10430;SDS011;5262;59.958;17.726;2023-07-20T01:55:53;2.83;;;0.80;;
10430;SDS011;5262;59.958;17.726;2023-07-20T01:58:21;2.27;;;0.70;;
10430;SDS011;5262;59.958;17.726;2023-07-20T02:00:47;2.13;;;0.80;;
10430;SDS011;5262;59.958;17.726;2023-07-20T02:03:13;5.57;;;0.90;;
10430;SDS011;5262;59.958;17.726;2023-07-20T02:05:39;1.37;;;0.67;;
10430;SDS011;5262;59.958;17.726;2023-07-20T02:08:07;2.90;;;0.90;;
10430;SDS011;5262;59.958;17.726;2023-07-20T02:10:32;2.17;;;1.00;;
10430;SDS011;5262;59.958;17.726;2023-07-20T02:12:58;1.37;;;0.80;;
10430;SDS011;5262;59.958;17.726;2023-07-20T02:15:23;2.57;;;0.90;;
10430;SDS011;5262;59.958;17.726;2023-07-20T02:17:49;1.80;;;0.97;;
10430;SDS011;5262;59.958;17.726;2023-07-20T02:20:15;3.03;;;0.83;;
10430;SDS011;5262;59.958;17.726;2023-07-20T02:22:40;1.10;;;1.00;;
10430;SDS011;5262;59.958;17.726;2023-07-20T02:25:06;5.03;;;0.90;;
10430;SDS011;5262;59.958;17.726;2023-07-20T02:27:33;1.87;;;1.00;;
10430;SDS011;5262;59.958;17.726;2023-07-20T02:29:59;1.97;;;1.20;;
10430;SDS011;5262;59.958;17.726;2023-07-20T02:32:25;1.90;;;0.97;;
10430;SDS011;5262;59.958;17.726;2023-07-20T02:34:50;4.87;;;0.87;;
10430;SDS011;5262;59.958;17.726;2023-07-20T02:37:16;1.47;;;0.90;;
10430;SDS011;5262;59.958;17.726;2023-07-20T02:39:42;0.87;;;0.60;;
10430;SDS011;5262;59.958;17.726;2023-07-20T02:42:08;1.90;;;0.97;;
10430;SDS011;5262;59.958;17.726;2023-07-20T02:44:33;4.17;;;1.20;;
10430;SDS011;5262;59.958;17.726;2023-07-20T02:46:59;2.13;;;1.10;;
10430;SDS011;5262;59.958;17.726;2023-07-20T02:49:25;3.30;;;1.10;;
10430;SDS011;5262;59.958;17.726;2023-07-20T02:51:51;3.20;;;1.30;;
10430;SDS011;5262;59.958;17.726;2023-07-20T02:54:17;4.40;;;1.00;;
10430;SDS011;5262;59.958;17.726;2023-07-20T02:56:43;4.00;;;1.20;;
10430;SDS011;5262;59.958;17.726;2023-07-20T02:59:09;3.43;;;1.30;;
10430;SDS011;5262;59.958;17.726;2023-07-20T03:01:34;1.47;;;0.97;;
10430;SDS011;5262;59.958;17.726;2023-07-20T03:04:00;2.87;;;1.40;;
10430;SDS011;5262;59.958;17.726;2023-07-20T03:06:26;3.40;;;1.20;;
10430;SDS011;5262;59.958;17.726;2023-07-20T03:08:51;7.03;;;1.13;;
10430;SDS011;5262;59.958;17.726;2023-07-20T03:11:18;2.20;;;1.30;;
10430;SDS011;5262;59.958;17.726;2023-07-20T03:13:46;4.93;;;1.50;;
10430;SDS011;5262;59.958;17.726;2023-07-20T03:16:12;5.47;;;0.90;;
10430;SDS011;5262;59.958;17.726;2023-07-20T03:18:40;2.73;;;1.17;;
10430;SDS011;5262;59.958;17.726;2023-07-20T03:21:06;3.00;;;1.20;;
10430;SDS011;5262;59.958;17.726;2023-07-20T03:23:33;5.13;;;1.53;;
10430;SDS011;5262;59.958;17.726;2023-07-20T03:25:59;3.80;;;1.37;;
10430;SDS011;5262;59.958;17.726;2023-07-20T03:28:25;4.13;;;1.23;;
10430;SDS011;5262;59.958;17.726;2023-07-20T03:30:54;4.93;;;1.10;;
10430;SDS011;5262;59.958;17.726;2023-07-20T03:33:27;2.77;;;1.10;;
10430;SDS011;5262;59.958;17.726;2023-07-20T03:35:54;3.17;;;1.43;;
10430;SDS011;5262;59.958;17.726;2023-07-20T03:38:21;4.00;;;1.30;;
10430;SDS011;5262;59.958;17.726;2023-07-20T03:43:16;1.53;;;1.20;;
10430;SDS011;5262;59.958;17.726;2023-07-20T03:45:42;4.10;;;1.40;;
10430;SDS011;5262;59.958;17.726;2023-07-20T03:48:07;4.50;;;1.40;;
10430;SDS011;5262;59.958;17.726;2023-07-20T03:50:33;4.23;;;1.17;;
10430;SDS011;5262;59.958;17.726;2023-07-20T03:52:59;5.17;;;1.50;;
10430;SDS011;5262;59.958;17.726;2023-07-20T03:55:24;5.40;;;1.43;;
10430;SDS011;5262;59.958;17.726;2023-07-20T03:57:50;5.37;;;1.20;;
10430;SDS011;5262;59.958;17.726;2023-07-20T04:00:16;3.23;;;1.17;;
10430;SDS011;5262;59.958;17.726;2023-07-20T04:02:43;3.03;;;1.13;;
10430;SDS011;5262;59.958;17.726;2023-07-20T04:05:09;3.33;;;1.40;;
10430;SDS011;5262;59.958;17.726;2023-07-20T04:07:34;3.57;;;1.50;;
10430;SDS011;5262;59.958;17.726;2023-07-20T04:10:00;6.20;;;1.40;;
10430;SDS011;5262;59.958;17.726;2023-07-20T04:12:26;1.93;;;1.03;;
10430;SDS011;5262;59.958;17.726;2023-07-20T04:14:51;4.63;;;1.20;;
10430;SDS011;5262;59.958;17.726;2023-07-20T04:17:17;3.23;;;1.23;;
10430;SDS011;5262;59.958;17.726;2023-07-20T04:19:43;6.30;;;1.20;;
10430;SDS011;5262;59.958;17.726;2023-07-20T04:22:09;6.13;;;1.30;;
10430;SDS011;5262;59.958;17.726;2023-07-20T04:24:35;4.87;;;1.23;;
10430;SDS011;5262;59.958;17.726;2023-07-20T04:27:00;5.27;;;1.40;;
10430;SDS011;5262;59.958;17.726;2023-07-20T04:29:26;2.33;;;1.30;;
10430;SDS011;5262;59.958;17.726;2023-07-20T04:31:52;4.50;;;1.60;;
10430;SDS011;5262;59.958;17.726;2023-07-20T04:34:17;3.33;;;1.53;;
10430;SDS011;5262;59.958;17.726;2023-07-20T04:36:43;4.07;;;1.30;;
10430;SDS011;5262;59.958;17.726;2023-07-20T04:39:09;4.07;;;1.47;;
10430;SDS011;5262;59.958;17.726;2023-07-20T04:41:35;11.80;;;1.60;;
10430;SDS011;5262;59.958;17.726;2023-07-20T04:44:01;2.53;;;1.20;;
10430;SDS011;5262;59.958;17.726;2023-07-20T04:46:26;5.27;;;1.67;;
10430;SDS011;5262;59.958;17.726;2023-07-20T04:48:52;4.73;;;2.00;;
10430;SDS011;5262;59.958;17.726;2023-07-20T04:51:18;5.60;;;1.73;;
10430;SDS011;5262;59.958;17.726;2023-07-20T04:53:46;3.63;;;1.20;;
10430;SDS011;5262;59.958;17.726;2023-07-20T04:56:12;4.47;;;1.30;;
10430;SDS011;5262;59.958;17.726;2023-07-20T04:58:38;4.93;;;1.50;;
10430;SDS011;5262;59.958;17.726;2023-07-20T05:01:04;4.03;;;1.50;;
10430;SDS011;5262;59.958;17.726;2023-07-20T05:03:29;4.03;;;1.50;;
10430;SDS011;5262;59.958;17.726;2023-07-20T05:05:55;5.20;;;1.37;;
10430;SDS011;5262;59.958;17.726;2023-07-20T05:08:20;4.40;;;1.60;;
10430;SDS011;5262;59.958;17.726;2023-07-20T05:10:49;2.33;;;1.53;;
10430;SDS011;5262;59.958;17.726;2023-07-20T05:13:15;3.93;;;1.27;;
10430;SDS011;5262;59.958;17.726;2023-07-20T05:15:40;5.77;;;1.43;;
10430;SDS011;5262;59.958;17.726;2023-07-20T05:18:06;4.80;;;1.40;;
10430;SDS011;5262;59.958;17.726;2023-07-20T05:20:33;7.30;;;1.53;;
10430;SDS011;5262;59.958;17.726;2023-07-20T05:22:59;5.73;;;1.50;;
10430;SDS011;5262;59.958;17.726;2023-07-20T05:25:26;4.47;;;1.20;;
10430;SDS011;5262;59.958;17.726;2023-07-20T05:27:52;3.97;;;1.70;;
10430;SDS011;5262;59.958;17.726;2023-07-20T05:30:17;4.10;;;1.20;;
10430;SDS011;5262;59.958;17.726;2023-07-20T05:32:44;5.20;;;1.63;;
10430;SDS011;5262;59.958;17.726;2023-07-20T05:35:12;4.93;;;1.30;;
10430;SDS011;5262;59.958;17.726;2023-07-20T05:37:39;6.63;;;1.70;;
10430;SDS011;5262;59.958;17.726;2023-07-20T05:40:05;3.70;;;1.37;;
10430;SDS011;5262;59.958;17.726;2023-07-20T05:42:32;2.10;;;1.13;;
10430;SDS011;5262;59.958;17.726;2023-07-20T05:44:58;4.60;;;1.47;;
10430;SDS011;5262;59.958;17.726;2023-07-20T05:47:24;5.07;;;1.07;;
10430;SDS011;5262;59.958;17.726;2023-07-20T05:49:49;5.10;;;1.27;;
10430;SDS011;5262;59.958;17.726;2023-07-20T05:52:15;3.07;;;1.20;;
10430;SDS011;5262;59.958;17.726;2023-07-20T05:54:41;4.17;;;1.07;;
10430;SDS011;5262;59.958;17.726;2023-07-20T05:57:07;4.43;;;1.10;;
10430;SDS011;5262;59.958;17.726;2023-07-20T05:59:33;3.23;;;1.03;;
10430;SDS011;5262;59.958;17.726;2023-07-20T06:01:58;4.03;;;1.30;;
10430;SDS011;5262;59.958;17.726;2023-07-20T06:04:24;3.13;;;1.27;;
10430;SDS011;5262;59.958;17.726;2023-07-20T06:06:49;2.17;;;1.20;;
10430;SDS011;5262;59.958;17.726;2023-07-20T06:09:15;5.27;;;1.30;;
10430;SDS011;5262;59.958;17.726;2023-07-20T06:11:41;7.17;;;1.10;;
10430;SDS011;5262;59.958;17.726;2023-07-20T06:14:06;3.43;;;1.07;;
10430;SDS011;5262;59.958;17.726;2023-07-20T06:16:32;3.60;;;1.10;;
10430;SDS011;5262;59.958;17.726;2023-07-20T06:18:59;3.97;;;1.30;;
10430;SDS011;5262;59.958;17.726;2023-07-20T06:21:25;2.63;;;1.03;;
10430;SDS011;5262;59.958;17.726;2023-07-20T06:23:51;3.80;;;1.30;;
10430;SDS011;5262;59.958;17.726;2023-07-20T06:26:16;3.30;;;1.20;;
10430;SDS011;5262;59.958;17.726;2023-07-20T06:28:42;4.73;;;1.33;;
10430;SDS011;5262;59.958;17.726;2023-07-20T06:31:07;3.63;;;1.10;;
10430;SDS011;5262;59.958;17.726;2023-07-20T06:33:33;1.90;;;0.90;;
10430;SDS011;5262;59.958;17.726;2023-07-20T06:36:02;4.23;;;1.30;;
10430;SDS011;5262;59.958;17.726;2023-07-20T06:38:28;1.63;;;1.00;;
10430;SDS011;5262;59.958;17.726;2023-07-20T06:40:54;5.97;;;1.30;;
10430;SDS011;5262;59.958;17.726;2023-07-20T06:43:20;2.27;;;1.00;;
10430;SDS011;5262;59.958;17.726;2023-07-20T06:45:50;3.40;;;1.03;;
10430;SDS011;5262;59.958;17.726;2023-07-20T06:48:17;5.73;;;1.40;;
10430;SDS011;5262;59.958;17.726;2023-07-20T06:50:43;5.47;;;1.50;;
10430;SDS011;5262;59.958;17.726;2023-07-20T06:53:09;2.60;;;1.20;;
10430;SDS011;5262;59.958;17.726;2023-07-20T06:55:34;4.72;;;1.00;;
10430;SDS011;5262;59.958;17.726;2023-07-20T06:58:00;5.97;;;1.13;;
10430;SDS011;5262;59.958;17.726;2023-07-20T07:00:25;3.22;;;1.20;;
10430;SDS011;5262;59.958;17.726;2023-07-20T07:02:51;4.90;;;1.23;;
10430;SDS011;5262;59.958;17.726;2023-07-20T07:05:17;4.43;;;1.13;;
10430;SDS011;5262;59.958;17.726;2023-07-20T07:07:43;3.38;;;1.10;;
10430;SDS011;5262;59.958;17.726;2023-07-20T07:10:09;3.30;;;1.15;;
10430;SDS011;5262;59.958;17.726;2023-07-20T07:12:34;4.22;;;0.98;;
10430;SDS011;5262;59.958;17.726;2023-07-20T07:15:00;2.13;;;1.10;;
10430;SDS011;5262;59.958;17.726;2023-07-20T07:17:27;4.50;;;1.27;;
10430;SDS011;5262;59.958;17.726;2023-07-20T07:19:53;4.57;;;1.25;;
10430;SDS011;5262;59.958;17.726;2023-07-20T07:22:19;3.53;;;0.98;;
10430;SDS011;5262;59.958;17.726;2023-07-20T07:24:46;5.22;;;1.48;;
10430;SDS011;5262;59.958;17.726;2023-07-20T07:27:12;2.67;;;1.17;;
10430;SDS011;5262;59.958;17.726;2023-07-20T07:29:38;2.13;;;1.05;;
10430;SDS011;5262;59.958;17.726;2023-07-20T07:32:03;4.38;;;1.25;;
10430;SDS011;5262;59.958;17.726;2023-07-20T07:34:29;2.72;;;1.10;;
10430;SDS011;5262;59.958;17.726;2023-07-20T07:36:56;2.33;;;1.10;;
10430;SDS011;5262;59.958;17.726;2023-07-20T07:39:22;2.05;;;1.17;;
10430;SDS011;5262;59.958;17.726;2023-07-20T07:41:49;2.67;;;1.00;;
10430;SDS011;5262;59.958;17.726;2023-07-20T07:44:15;2.53;;;1.25;;
10430;SDS011;5262;59.958;17.726;2023-07-20T07:46:40;3.92;;;1.33;;
10430;SDS011;5262;59.958;17.726;2023-07-20T07:49:06;3.20;;;1.08;;
10430;SDS011;5262;59.958;17.726;2023-07-20T07:51:32;2.03;;;1.00;;
10430;SDS011;5262;59.958;17.726;2023-07-20T07:53:58;3.38;;;0.93;;
10430;SDS011;5262;59.958;17.726;2023-07-20T07:56:23;3.20;;;1.10;;
10430;SDS011;5262;59.958;17.726;2023-07-20T07:58:49;4.43;;;1.10;;
10430;SDS011;5262;59.958;17.726;2023-07-20T08:01:16;3.28;;;0.98;;
10430;SDS011;5262;59.958;17.726;2023-07-20T08:03:43;2.90;;;1.10;;
10430;SDS011;5262;59.958;17.726;2023-07-20T08:06:12;3.00;;;1.10;;
10430;SDS011;5262;59.958;17.726;2023-07-20T08:08:38;3.65;;;1.10;;
10430;SDS011;5262;59.958;17.726;2023-07-20T08:11:04;2.60;;;1.17;;
10430;SDS011;5262;59.958;17.726;2023-07-20T08:13:29;3.58;;;1.23;;
10430;SDS011;5262;59.958;17.726;2023-07-20T08:15:56;1.17;;;1.02;;
10430;SDS011;5262;59.958;17.726;2023-07-20T08:18:22;3.40;;;1.27;;
10430;SDS011;5262;59.958;17.726;2023-07-20T08:20:47;2.95;;;1.00;;
10430;SDS011;5262;59.958;17.726;2023-07-20T08:23:14;2.90;;;0.90;;
10430;SDS011;5262;59.958;17.726;2023-07-20T08:25:40;4.35;;;0.95;;
10430;SDS011;5262;59.958;17.726;2023-07-20T08:28:09;1.98;;;0.80;;
10430;SDS011;5262;59.958;17.726;2023-07-20T08:30:45;3.45;;;1.05;;
10430;SDS011;5262;59.958;17.726;2023-07-20T08:33:15;3.88;;;0.82;;
10430;SDS011;5262;59.958;17.726;2023-07-20T08:35:44;1.53;;;0.80;;
10430;SDS011;5262;59.958;17.726;2023-07-20T08:38:09;3.37;;;1.27;;
10430;SDS011;5262;59.958;17.726;2023-07-20T08:40:42;3.55;;;1.00;;
10430;SDS011;5262;59.958;17.726;2023-07-20T08:43:10;4.38;;;1.13;;
10430;SDS011;5262;59.958;17.726;2023-07-20T08:45:37;2.85;;;0.90;;
10430;SDS011;5262;59.958;17.726;2023-07-20T08:48:05;2.33;;;0.90;;
10430;SDS011;5262;59.958;17.726;2023-07-20T08:50:32;1.27;;;0.82;;
10430;SDS011;5262;59.958;17.726;2023-07-20T08:52:59;3.85;;;1.15;;
10430;SDS011;5262;59.958;17.726;2023-07-20T08:55:26;2.75;;;1.10;;
10430;SDS011;5262;59.958;17.726;2023-07-20T08:57:54;2.25;;;1.00;;
10430;SDS011;5262;59.958;17.726;2023-07-20T09:00:20;3.90;;;1.30;;
10430;SDS011;5262;59.958;17.726;2023-07-20T09:02:48;2.15;;;1.10;;
10430;SDS011;5262;59.958;17.726;2023-07-20T09:05:15;2.00;;;0.95;;
10430;SDS011;5262;59.958;17.726;2023-07-20T09:07:41;2.00;;;1.08;;
10430;SDS011;5262;59.958;17.726;2023-07-20T09:10:07;2.55;;;1.02;;
10430;SDS011;5262;59.958;17.726;2023-07-20T09:12:40;2.08;;;1.00;;
10430;SDS011;5262;59.958;17.726;2023-07-20T09:15:07;2.05;;;1.27;;
10430;SDS011;5262;59.958;17.726;2023-07-20T09:17:34;2.60;;;0.90;;
10430;SDS011;5262;59.958;17.726;2023-07-20T09:20:07;1.58;;;1.00;;
10430;SDS011;5262;59.958;17.726;2023-07-20T09:22:36;3.17;;;1.15;;
10430;SDS011;5262;59.958;17.726;2023-07-20T09:25:06;4.53;;;1.20;;
10430;SDS011;5262;59.958;17.726;2023-07-20T09:27:39;2.97;;;1.05;;
10430;SDS011;5262;59.958;17.726;2023-07-20T09:30:08;2.13;;;0.98;;
10430;SDS011;5262;59.958;17.726;2023-07-20T09:32:38;2.03;;;1.00;;
10430;SDS011;5262;59.958;17.726;2023-07-20T09:35:16;2.47;;;1.20;;
10430;SDS011;5262;59.958;17.726;2023-07-20T09:37:46;2.08;;;1.10;;
10430;SDS011;5262;59.958;17.726;2023-07-20T09:40:16;3.00;;;1.38;;
10430;SDS011;5262;59.958;17.726;2023-07-20T09:42:42;3.38;;;1.23;;
10430;SDS011;5262;59.958;17.726;2023-07-20T09:45:08;4.32;;;1.40;;
10430;SDS011;5262;59.958;17.726;2023-07-20T09:47:38;3.38;;;1.23;;
10430;SDS011;5262;59.958;17.726;2023-07-20T09:50:05;2.42;;;1.00;;
10430;SDS011;5262;59.958;17.726;2023-07-20T09:52:36;1.27;;;0.90;;
10430;SDS011;5262;59.958;17.726;2023-07-20T09:55:03;1.33;;;0.80;;
10430;SDS011;5262;59.958;17.726;2023-07-20T09:57:30;5.47;;;1.15;;
10430;SDS011;5262;59.958;17.726;2023-07-20T09:59:58;1.55;;;0.80;;
10430;SDS011;5262;59.958;17.726;2023-07-20T10:02:30;1.70;;;1.08;;
10430;SDS011;5262;59.958;17.726;2023-07-20T10:04:58;1.83;;;0.93;;
10430;SDS011;5262;59.958;17.726;2023-07-20T10:07:29;2.65;;;0.88;;
10430;SDS011;5262;59.958;17.726;2023-07-20T10:09:56;2.55;;;1.05;;
10430;SDS011;5262;59.958;17.726;2023-07-20T10:12:24;2.58;;;0.90;;
10430;SDS011;5262;59.958;17.726;2023-07-20T10:15:01;1.55;;;0.80;;
10430;SDS011;5262;59.958;17.726;2023-07-20T10:17:36;2.88;;;0.93;;
10430;SDS011;5262;59.958;17.726;2023-07-20T10:20:05;2.00;;;1.00;;
10430;SDS011;5262;59.958;17.726;2023-07-20T10:22:34;2.13;;;0.80;;
10430;SDS011;5262;59.958;17.726;2023-07-20T10:25:01;1.50;;;0.90;;
10430;SDS011;5262;59.958;17.726;2023-07-20T10:27:30;1.50;;;0.80;;
10430;SDS011;5262;59.958;17.726;2023-07-20T10:29:55;1.25;;;0.68;;
10430;SDS011;5262;59.958;17.726;2023-07-20T10:32:24;1.30;;;0.90;;
10430;SDS011;5262;59.958;17.726;2023-07-20T10:34:50;1.05;;;0.70;;
10430;SDS011;5262;59.958;17.726;2023-07-20T10:40:27;1.52;;;0.90;;
10430;SDS011;5262;59.958;17.726;2023-07-20T10:43:07;3.65;;;0.90;;
10430;SDS011;5262;59.958;17.726;2023-07-20T10:45:40;1.52;;;1.02;;
10430;SDS011;5262;59.958;17.726;2023-07-20T10:48:18;1.30;;;1.02;;
10430;SDS011;5262;59.958;17.726;2023-07-20T10:53:39;3.35;;;1.25;;
10430;SDS011;5262;59.958;17.726;2023-07-20T10:56:09;5.43;;;0.73;;
10430;SDS011;5262;59.958;17.726;2023-07-20T10:58:38;1.73;;;0.70;;
10430;SDS011;5262;59.958;17.726;2023-07-20T11:01:05;2.85;;;0.63;;
10430;SDS011;5262;59.958;17.726;2023-07-20T11:03:38;2.15;;;0.90;;
10430;SDS011;5262;59.958;17.726;2023-07-20T11:06:29;2.33;;;0.80;;
10430;SDS011;5262;59.958;17.726;2023-07-20T11:09:04;2.90;;;0.90;;
10430;SDS011;5262;59.958;17.726;2023-07-20T11:11:40;4.03;;;1.20;;
10430;SDS011;5262;59.958;17.726;2023-07-20T11:14:21;4.13;;;1.07;;
10430;SDS011;5262;59.958;17.726;2023-07-20T11:16:49;4.47;;;1.33;;
10430;SDS011;5262;59.958;17.726;2023-07-20T11:19:24;2.63;;;1.00;;
10430;SDS011;5262;59.958;17.726;2023-07-20T11:21:52;4.07;;;1.40;;
10430;SDS011;5262;59.958;17.726;2023-07-20T11:24:19;4.80;;;1.10;;
10430;SDS011;5262;59.958;17.726;2023-07-20T11:26:46;1.83;;;0.80;;
10430;SDS011;5262;59.958;17.726;2023-07-20T11:29:13;5.23;;;1.27;;
10430;SDS011;5262;59.958;17.726;2023-07-20T11:31:41;3.00;;;0.90;;
10430;SDS011;5262;59.958;17.726;2023-07-20T11:34:10;2.53;;;0.60;;
10430;SDS011;5262;59.958;17.726;2023-07-20T11:36:43;2.53;;;0.77;;
10430;SDS011;5262;59.958;17.726;2023-07-20T11:39:11;1.57;;;0.80;;
10430;SDS011;5262;59.958;17.726;2023-07-20T11:41:38;3.77;;;0.70;;
10430;SDS011;5262;59.958;17.726;2023-07-20T11:44:05;2.17;;;0.70;;
10430;SDS011;5262;59.958;17.726;2023-07-20T11:46:32;5.73;;;0.90;;
10430;SDS011;5262;59.958;17.726;2023-07-20T11:48:59;1.53;;;0.80;;
10430;SDS011;5262;59.958;17.726;2023-07-20T11:51:26;1.13;;;0.80;;
10430;SDS011;5262;59.958;17.726;2023-07-20T11:53:53;1.60;;;0.70;;
10430;SDS011;5262;59.958;17.726;2023-07-20T11:56:19;1.53;;;0.80;;
10430;SDS011;5262;59.958;17.726;2023-07-20T11:58:45;1.87;;;0.67;;
10430;SDS011;5262;59.958;17.726;2023-07-20T12:01:12;2.73;;;0.80;;
10430;SDS011;5262;59.958;17.726;2023-07-20T12:03:38;1.73;;;0.70;;
10430;SDS011;5262;59.958;17.726;2023-07-20T12:06:10;0.90;;;0.60;;
10430;SDS011;5262;59.958;17.726;2023-07-20T12:08:39;1.27;;;0.70;;
10430;SDS011;5262;59.958;17.726;2023-07-20T12:11:09;0.90;;;0.50;;
10430;SDS011;5262;59.958;17.726;2023-07-20T12:13:44;0.83;;;0.50;;
10430;SDS011;5262;59.958;17.726;2023-07-20T12:16:16;1.40;;;0.47;;
10430;SDS011;5262;59.958;17.726;2023-07-20T12:18:42;2.03;;;0.70;;
10430;SDS011;5262;59.958;17.726;2023-07-20T12:21:09;1.87;;;0.50;;
10430;SDS011;5262;59.958;17.726;2023-07-20T12:23:36;4.17;;;0.83;;
10430;SDS011;5262;59.958;17.726;2023-07-20T12:26:06;3.77;;;0.80;;
10430;SDS011;5262;59.958;17.726;2023-07-20T12:28:35;3.53;;;0.80;;
10430;SDS011;5262;59.958;17.726;2023-07-20T12:31:04;2.93;;;0.80;;
10430;SDS011;5262;59.958;17.726;2023-07-20T12:33:31;3.07;;;0.80;;
10430;SDS011;5262;59.958;17.726;2023-07-20T12:35:57;2.63;;;0.70;;
10430;SDS011;5262;59.958;17.726;2023-07-20T12:38:24;4.80;;;0.90;;
10430;SDS011;5262;59.958;17.726;2023-07-20T12:40:50;4.53;;;1.00;;
10430;SDS011;5262;59.958;17.726;2023-07-20T12:43:16;4.60;;;0.70;;
10430;SDS011;5262;59.958;17.726;2023-07-20T12:45:42;1.90;;;1.00;;
10430;SDS011;5262;59.958;17.726;2023-07-20T12:48:08;4.30;;;0.80;;
10430;SDS011;5262;59.958;17.726;2023-07-20T12:50:34;6.63;;;1.10;;
10430;SDS011;5262;59.958;17.726;2023-07-20T12:52:59;3.07;;;0.73;;
10430;SDS011;5262;59.958;17.726;2023-07-20T12:55:25;2.50;;;0.83;;
10430;SDS011;5262;59.958;17.726;2023-07-20T12:57:51;1.93;;;0.67;;
10430;SDS011;5262;59.958;17.726;2023-07-20T13:00:17;2.60;;;0.70;;
10430;SDS011;5262;59.958;17.726;2023-07-20T13:02:42;3.57;;;0.60;;
10430;SDS011;5262;59.958;17.726;2023-07-20T13:05:08;1.20;;;0.53;;
10430;SDS011;5262;59.958;17.726;2023-07-20T13:07:35;3.53;;;0.53;;
10430;SDS011;5262;59.958;17.726;2023-07-20T13:10:03;1.03;;;0.60;;
10430;SDS011;5262;59.958;17.726;2023-07-20T13:12:30;0.77;;;0.60;;
10430;SDS011;5262;59.958;17.726;2023-07-20T13:14:57;4.53;;;0.90;;
10430;SDS011;5262;59.958;17.726;2023-07-20T13:17:26;1.53;;;0.70;;
10430;SDS011;5262;59.958;17.726;2023-07-20T13:19:52;0.97;;;0.60;;
10430;SDS011;5262;59.958;17.726;2023-07-20T13:22:18;0.90;;;0.50;;
10430;SDS011;5262;59.958;17.726;2023-07-20T13:24:46;1.03;;;0.50;;
10430;SDS011;5262;59.958;17.726;2023-07-20T13:27:18;3.90;;;0.60;;
10430;SDS011;5262;59.958;17.726;2023-07-20T13:29:44;1.90;;;0.63;;
10430;SDS011;5262;59.958;17.726;2023-07-20T13:32:12;4.30;;;0.70;;
10430;SDS011;5262;59.958;17.726;2023-07-20T13:34:39;0.70;;;0.60;;
10430;SDS011;5262;59.958;17.726;2023-07-20T13:37:05;1.70;;;0.43;;
10430;SDS011;5262;59.958;17.726;2023-07-20T13:39:31;1.40;;;0.50;;
10430;SDS011;5262;59.958;17.726;2023-07-20T13:41:56;1.63;;;0.60;;
10430;SDS011;5262;59.958;17.726;2023-07-20T13:44:22;0.63;;;0.40;;
10430;SDS011;5262;59.958;17.726;2023-07-20T13:46:48;1.90;;;0.57;;
10430;SDS011;5262;59.958;17.726;2023-07-20T13:49:14;0.50;;;0.40;;
10430;SDS011;5262;59.958;17.726;2023-07-20T13:51:41;2.50;;;0.80;;
10430;SDS011;5262;59.958;17.726;2023-07-20T13:54:07;1.00;;;0.40;;
10430;SDS011;5262;59.958;17.726;2023-07-20T13:56:33;0.90;;;0.60;;
10430;SDS011;5262;59.958;17.726;2023-07-20T13:58:59;1.10;;;0.50;;
10430;SDS011;5262;59.958;17.726;2023-07-20T14:01:24;1.47;;;0.60;;
10430;SDS011;5262;59.958;17.726;2023-07-20T14:03:50;0.83;;;0.50;;
10430;SDS011;5262;59.958;17.726;2023-07-20T14:06:16;1.03;;;0.60;;
10430;SDS011;5262;59.958;17.726;2023-07-20T14:08:42;1.40;;;0.60;;
10430;SDS011;5262;59.958;17.726;2023-07-20T14:11:11;3.17;;;0.97;;
10430;SDS011;5262;59.958;17.726;2023-07-20T14:13:37;2.07;;;0.70;;
10430;SDS011;5262;59.958;17.726;2023-07-20T14:16:03;1.50;;;0.60;;
10430;SDS011;5262;59.958;17.726;2023-07-20T14:18:29;1.53;;;0.50;;
10430;SDS011;5262;59.958;17.726;2023-07-20T14:20:55;2.33;;;0.70;;
10430;SDS011;5262;59.958;17.726;2023-07-20T14:23:20;2.87;;;0.70;;
10430;SDS011;5262;59.958;17.726;2023-07-20T14:25:46;1.13;;;0.70;;
10430;SDS011;5262;59.958;17.726;2023-07-20T14:28:11;2.13;;;0.90;;
10430;SDS011;5262;59.958;17.726;2023-07-20T14:30:38;1.57;;;1.00;;
10430;SDS011;5262;59.958;17.726;2023-07-20T14:33:03;1.63;;;0.60;;
10430;SDS011;5262;59.958;17.726;2023-07-20T14:35:29;2.77;;;0.60;;
10430;SDS011;5262;59.958;17.726;2023-07-20T14:37:55;1.50;;;0.50;;
10430;SDS011;5262;59.958;17.726;2023-07-20T14:40:20;0.70;;;0.63;;
10430;SDS011;5262;59.958;17.726;2023-07-20T14:42:46;1.73;;;0.70;;
10430;SDS011;5262;59.958;17.726;2023-07-20T14:45:11;0.60;;;0.60;;
10430;SDS011;5262;59.958;17.726;2023-07-20T14:47:37;1.13;;;0.50;;
10430;SDS011;5262;59.958;17.726;2023-07-20T14:50:03;3.17;;;0.60;;
10430;SDS011;5262;59.958;17.726;2023-07-20T14:52:29;1.10;;;0.60;;
10430;SDS011;5262;59.958;17.726;2023-07-20T14:54:55;1.50;;;0.60;;
10430;SDS011;5262;59.958;17.726;2023-07-20T14:57:20;2.57;;;0.60;;
10430;SDS011;5262;59.958;17.726;2023-07-20T14:59:48;1.63;;;0.60;;
10430;SDS011;5262;59.958;17.726;2023-07-20T15:02:14;1.70;;;0.67;;
10430;SDS011;5262;59.958;17.726;2023-07-20T15:04:50;0.70;;;0.50;;
10430;SDS011;5262;59.958;17.726;2023-07-20T15:07:16;0.80;;;0.60;;